createdAt,value
2022-10-11T00:02:27.440Z,96140.00
2022-10-11T00:08:10.422Z,96144.00
2022-10-11T00:13:38.310Z,96139.00
2022-10-11T00:19:08.964Z,96146.00
2022-10-11T00:24:36.721Z,96150.00
2022-10-11T00:30:14.024Z,96156.00
2022-10-11T00:35:44.739Z,96166.00
2022-10-11T00:41:15.702Z,96164.00
2022-10-11T00:46:55.602Z,96181.00
2022-10-11T00:52:43.494Z,96188.00
2022-10-11T00:58:22.811Z,96187.00
2022-10-11T01:03:54.025Z,96190.00
2022-10-11T01:09:29.026Z,96186.00
2022-10-11T01:15:11.698Z,96190.00
2022-10-11T01:21:22.111Z,96191.00
2022-10-11T01:27:28.157Z,96189.00
2022-10-11T01:33:41.516Z,96188.00
2022-10-11T01:39:31.075Z,96184.00
2022-10-11T01:45:21.922Z,96193.00
2022-10-11T01:50:57.271Z,96196.00
2022-10-11T01:56:50.957Z,96190.00
2022-10-11T02:02:57.169Z,96194.00
2022-10-11T02:08:42.612Z,96186.00
2022-10-11T02:14:26.150Z,96190.00
2022-10-11T02:19:57.702Z,96182.00
2022-10-11T02:25:27.647Z,96178.00
2022-10-11T02:30:58.510Z,96183.00
2022-10-11T02:36:44.979Z,96177.00
2022-10-11T02:42:22.537Z,96179.00
2022-10-11T02:47:50.634Z,96176.00
2022-10-11T02:53:18.754Z,96178.00
2022-10-11T02:58:46.688Z,96184.00
2022-10-11T03:04:14.926Z,96187.00
2022-10-11T03:09:42.788Z,96182.00
2022-10-11T03:15:11.291Z,96183.00
2022-10-11T03:20:39.043Z,96185.00
2022-10-11T03:26:07.422Z,96198.00
2022-10-11T03:31:35.642Z,96197.00
2022-10-11T03:37:03.489Z,96201.00
2022-10-11T03:42:31.302Z,96219.00
2022-10-11T03:47:59.070Z,96215.00
2022-10-11T03:53:27.185Z,96219.00
2022-10-11T03:58:55.626Z,96229.00
2022-10-11T04:04:23.532Z,96231.00
2022-10-11T04:09:52.148Z,96230.00
2022-10-11T04:15:20.442Z,96231.00
2022-10-11T04:20:48.611Z,96241.00
2022-10-11T04:26:16.288Z,96230.00
2022-10-11T04:31:44.018Z,96234.00
2022-10-11T04:37:12.042Z,96234.00
2022-10-11T04:42:40.016Z,96228.00
2022-10-11T04:48:08.120Z,96229.00
2022-10-11T04:53:36.454Z,96216.00
2022-10-11T04:59:06.926Z,96231.00
2022-10-11T05:04:34.788Z,96236.00
2022-10-11T05:10:03.454Z,96235.00
2022-10-11T05:15:31.480Z,96234.00
2022-10-11T05:21:08.203Z,96232.00
2022-10-11T05:26:36.251Z,96235.00
2022-10-11T05:32:08.907Z,96232.00
2022-10-11T05:37:36.804Z,96239.00
2022-10-11T05:43:05.328Z,96239.00
2022-10-11T05:48:33.230Z,96252.00
2022-10-11T05:54:01.080Z,96258.00
2022-10-11T05:59:28.775Z,96258.00
2022-10-11T06:04:56.516Z,96266.00
2022-10-11T06:10:24.838Z,96269.00
2022-10-11T06:15:52.568Z,96268.00
2022-10-11T06:21:20.930Z,96263.00
2022-10-11T06:26:52.005Z,96270.00
2022-10-11T06:32:19.812Z,96275.00
2022-10-11T06:37:48.619Z,96280.00
2022-10-11T06:43:16.439Z,96278.00
2022-10-11T06:48:46.644Z,96286.00
2022-10-11T06:54:14.451Z,96295.00
2022-10-11T06:59:42.214Z,96292.00
2022-10-11T07:05:10.489Z,96300.00
2022-10-11T07:10:38.336Z,96313.00
2022-10-11T07:16:10.682Z,96308.00
2022-10-11T07:21:38.404Z,96326.00
2022-10-11T07:27:06.207Z,96334.00
2022-10-11T07:32:33.898Z,96329.00
2022-10-11T07:38:01.997Z,96336.00
2022-10-11T07:43:29.687Z,96335.00
2022-10-11T07:48:57.791Z,96343.00
2022-10-11T07:54:25.630Z,96334.00
2022-10-11T07:59:53.345Z,96339.00
2022-10-11T08:05:21.253Z,96338.00
2022-10-11T08:10:49.036Z,96347.00
2022-10-11T08:16:17.363Z,96339.00
2022-10-11T08:21:45.270Z,96349.00
2022-10-11T08:27:13.038Z,96349.00
2022-10-11T08:32:41.310Z,96363.00
2022-10-11T08:38:09.225Z,96359.00
2022-10-11T08:44:46.156Z,96367.00
2022-10-11T08:50:23.611Z,96364.00
2022-10-11T08:55:52.895Z,96365.00
2022-10-11T09:01:26.841Z,96363.00
2022-10-11T09:07:26.471Z,96363.00
2022-10-11T09:13:18.005Z,96361.00
2022-10-11T09:19:07.428Z,96357.00
2022-10-11T09:25:00.019Z,96356.00
2022-10-11T09:30:30.649Z,96360.00
2022-10-11T09:36:30.553Z,96362.00
2022-10-11T09:42:16.194Z,96354.00
2022-10-11T09:47:54.718Z,96359.00
2022-10-11T09:54:00.617Z,96361.00
2022-10-11T09:59:47.124Z,96350.00
2022-10-11T10:05:39.162Z,96355.00
2022-10-11T10:11:08.720Z,96355.00
2022-10-11T10:16:37.381Z,96354.00
2022-10-11T10:22:05.989Z,96353.00
2022-10-11T10:27:34.545Z,96354.00
2022-10-11T10:33:06.045Z,96365.00
2022-10-11T10:38:51.287Z,96360.00
2022-10-11T10:44:21.155Z,96361.00
2022-10-11T10:50:29.620Z,96352.00
2022-10-11T10:56:11.553Z,96358.00
2022-10-11T11:01:56.724Z,96341.00
2022-10-11T11:08:01.855Z,96345.00
2022-10-11T11:14:28.021Z,96340.00
2022-10-11T11:20:06.555Z,96338.00
2022-10-11T11:26:11.293Z,96338.00
2022-10-11T11:32:11.767Z,96331.00
2022-10-11T11:37:45.301Z,96320.00
2022-10-11T11:43:37.101Z,96324.00
2022-10-11T11:49:21.081Z,96325.00
2022-10-11T11:55:04.114Z,96322.00
2022-10-11T12:00:49.307Z,96321.00
2022-10-11T12:06:47.864Z,96324.00
2022-10-11T12:12:38.193Z,96324.00
2022-10-11T12:18:16.561Z,96319.00
2022-10-11T12:23:48.661Z,96317.00
2022-10-11T12:29:28.520Z,96311.00
2022-10-11T12:35:31.439Z,96308.00
2022-10-11T12:41:26.074Z,96304.00
2022-10-11T12:46:53.839Z,96301.00
2022-10-11T12:52:25.446Z,96304.00
2022-10-11T12:58:07.609Z,96297.00
2022-10-11T13:03:50.916Z,96300.00
2022-10-11T13:09:27.879Z,96300.00
2022-10-11T13:15:09.847Z,96305.00
2022-10-11T13:20:42.520Z,96302.00
2022-10-11T13:26:10.516Z,96295.00
2022-10-11T13:31:40.827Z,96297.00
2022-10-11T13:37:18.641Z,96289.00
2022-10-11T13:42:48.632Z,96290.00
2022-10-11T13:48:17.426Z,96288.00
2022-10-11T13:54:13.412Z,96288.00
2022-10-11T13:59:44.281Z,96278.00
2022-10-11T14:05:27.834Z,96280.00
2022-10-11T14:10:58.526Z,96270.00
2022-10-11T14:16:30.373Z,96283.00
2022-10-11T14:21:58.306Z,96283.00
2022-10-11T14:27:28.259Z,96289.00
2022-10-11T14:32:59.932Z,96285.00
2022-10-11T14:38:34.261Z,96292.00
2022-10-11T14:44:02.211Z,96299.00
2022-10-11T14:49:30.810Z,96304.00
2022-10-11T14:54:58.541Z,96299.00
2022-10-11T15:00:30.362Z,96298.00
2022-10-11T15:05:58.336Z,96295.00
2022-10-11T15:11:27.004Z,96294.00
2022-10-11T15:16:56.199Z,96291.00
2022-10-11T15:22:23.976Z,96288.00
2022-10-11T15:27:53.179Z,96297.00
2022-10-11T15:33:22.246Z,96289.00
2022-10-11T15:38:50.068Z,96290.00
2022-10-11T15:44:17.832Z,96287.00
2022-10-11T15:49:45.663Z,96290.00
2022-10-11T15:55:13.411Z,96286.00
2022-10-11T16:00:45.795Z,96287.00
2022-10-11T16:06:13.870Z,96284.00
2022-10-11T16:11:41.910Z,96300.00
2022-10-11T16:17:09.746Z,96300.00
2022-10-11T16:22:37.474Z,96304.00
2022-10-11T16:28:08.066Z,96305.00
2022-10-11T16:33:45.501Z,96305.00
2022-10-11T16:39:18.036Z,96300.00
2022-10-11T16:44:45.719Z,96309.00
2022-10-11T16:50:13.590Z,96305.00
2022-10-11T16:55:41.376Z,96315.00
2022-10-11T17:01:11.203Z,96316.00
2022-10-11T17:06:40.597Z,96319.00
2022-10-11T17:12:10.811Z,96319.00
2022-10-11T17:17:38.556Z,96309.00
2022-10-11T17:23:06.584Z,96317.00
2022-10-11T17:28:37.459Z,96314.00
2022-10-11T17:34:05.688Z,96308.00
2022-10-11T17:39:34.121Z,96313.00
2022-10-11T17:45:01.984Z,96323.00
2022-10-11T17:50:30.843Z,96332.00
2022-10-11T17:55:59.107Z,96321.00
2022-10-11T18:01:29.373Z,96322.00
2022-10-11T18:06:57.354Z,96324.00
2022-10-11T18:12:26.183Z,96326.00
2022-10-11T18:17:54.137Z,96314.00
2022-10-11T18:23:22.263Z,96307.00
2022-10-11T18:28:53.514Z,96304.00
2022-10-11T18:34:21.345Z,96307.00
2022-10-11T18:39:49.521Z,96301.00
2022-10-11T18:45:17.580Z,96301.00
2022-10-11T18:50:45.820Z,96302.00
2022-10-11T18:56:16.501Z,96313.00
2022-10-11T19:01:45.969Z,96303.00
2022-10-11T19:07:15.056Z,96308.00
2022-10-11T19:12:44.140Z,96304.00
2022-10-11T19:18:15.953Z,96308.00
2022-10-11T19:23:50.244Z,96310.00
2022-10-11T19:29:22.966Z,96299.00
2022-10-11T19:34:52.094Z,96299.00
2022-10-11T19:40:21.127Z,96297.00
2022-10-11T19:45:50.327Z,96303.00
2022-10-11T19:51:25.486Z,96300.00
2022-10-11T19:56:53.371Z,96301.00
2022-10-11T20:02:21.341Z,96297.00
2022-10-11T20:07:49.169Z,96298.00
2022-10-11T20:13:17.114Z,96303.00
2022-10-11T20:18:46.268Z,96303.00
2022-10-11T20:24:14.088Z,96308.00
2022-10-11T20:29:42.321Z,96317.00
2022-10-11T20:35:10.504Z,96316.00
2022-10-11T20:40:41.703Z,96312.00
2022-10-11T20:46:13.225Z,96318.00
2022-10-11T20:51:42.746Z,96322.00
2022-10-11T20:57:10.588Z,96316.00
2022-10-11T21:02:38.614Z,96313.00
2022-10-11T21:08:06.494Z,96305.00
2022-10-11T21:13:34.826Z,96289.00
2022-10-11T21:19:03.182Z,96293.00
2022-10-11T21:24:31.022Z,96287.00
2022-10-11T21:29:58.987Z,96292.00
2022-10-11T21:35:31.171Z,96292.00
2022-10-11T21:40:58.941Z,96280.00
2022-10-11T21:47:01.057Z,96286.00
2022-10-11T21:52:20.049Z,96289.00
2022-10-11T21:57:47.843Z,96290.00
2022-10-11T22:03:15.662Z,96285.00
2022-10-11T22:08:43.607Z,96285.00
2022-10-11T22:14:11.463Z,96288.00
2022-10-11T22:19:39.264Z,96291.00
2022-10-11T22:25:09.705Z,96292.00
2022-10-11T22:30:37.519Z,96282.00
2022-10-11T22:36:08.972Z,96277.00
2022-10-11T22:41:37.373Z,96267.00
2022-10-11T22:47:05.719Z,96269.00
2022-10-11T22:52:33.445Z,96269.00
2022-10-11T22:58:01.468Z,96265.00
2022-10-11T23:03:29.257Z,96265.00
2022-10-11T23:08:57.071Z,96257.00
2022-10-11T23:14:24.795Z,96266.00
2022-10-11T23:19:52.873Z,96270.00
2022-10-11T23:25:20.551Z,96267.00
2022-10-11T23:30:48.284Z,96265.00
2022-10-11T23:36:22.897Z,96273.00
2022-10-11T23:41:50.773Z,96276.00
2022-10-11T23:47:18.572Z,96269.00
2022-10-11T23:52:46.389Z,96267.00
2022-10-11T23:58:14.093Z,96279.00
